Аэропорт: Игнатьево. Благовещенск

ICAO: UHBB

METAR:
2019-11-21 09:00:00
UHBB 210900Z 00000MPS 9000 FEW033 M15/M19 Q1023 R36/420350 NOSIG RMK QFE750/1000
METAR:
2019-11-21 07:36:00
TAF UHBB 210736Z 2109/2209 17003MPS 9999 SCT030 FM211500 09003MPS 4000 BR BKN020CB TEMPO 2115/2123 3100 -SHSN SCT011 BKN015CB BECMG 2123/2201 16003MPS 9999 NSW